Time;durP1;ratioP1;P1;durP2;ratioP2;P2;SDS_P1;SDS_P2;PMS_P1;PMS_P2;Temp;Humidity;BMP_temperature;BMP_pressure;BME280_temperature;BME280_humidity;BME280_pressure;Samples;Min_cycle;Max_cycle;Signal;HPM_P1;HPM_P2
2023/06/15 00:01:16;;;;;;;11.35;2.97;;;16.30;99.90;;;;;;4901167;29;20086;-93
2023/06/15 00:03:42;;;;;;;6.38;2.80;;;16.20;99.90;;;;;;4901407;29;20083;-92
2023/06/15 00:06:14;;;;;;;8.15;2.80;;;16.20;99.90;;;;;;4900577;29;20087;-92
2023/06/15 00:08:40;;;;;;;6.15;2.47;;;16.20;99.90;;;;;;4888450;29;20063;-92
2023/06/15 00:11:06;;;;;;;11.05;3.38;;;16.10;99.90;;;;;;4900776;29;20411;-92
2023/06/15 00:13:31;;;;;;;7.57;2.70;;;16.10;99.90;;;;;;4900788;29;20047;-93
2023/06/15 00:15:57;;;;;;;12.77;3.00;;;16.00;99.90;;;;;;4902035;29;20040;-92
2023/06/15 00:18:23;;;;;;;9.15;2.90;;;15.90;99.90;;;;;;4901656;29;20052;-93
2023/06/15 00:20:49;;;;;;;7.88;3.00;;;15.90;99.90;;;;;;4890596;29;20365;-92
2023/06/15 00:23:17;;;;;;;5.65;2.70;;;15.80;99.90;;;;;;4899205;29;20040;-93
2023/06/15 00:25:43;;;;;;;10.02;2.50;;;15.80;99.90;;;;;;4909667;29;20050;-92
2023/06/15 00:28:09;;;;;;;7.85;2.80;;;15.70;99.90;;;;;;4915596;29;20044;-93
2023/06/15 00:30:34;;;;;;;9.95;2.70;;;15.70;99.90;;;;;;4910491;29;20051;-92
2023/06/15 00:33:00;;;;;;;7.93;3.33;;;15.60;99.90;;;;;;4916093;29;20574;-92
2023/06/15 00:35:26;;;;;;;4.95;2.50;;;15.60;99.90;;;;;;4892932;29;20072;-92
2023/06/15 00:37:52;;;;;;;7.47;2.50;;;15.50;99.90;;;;;;4907031;29;20063;-91
2023/06/15 00:40:17;;;;;;;10.20;2.72;;;15.50;99.90;;;;;;4891487;29;20391;-92
2023/06/15 00:42:45;;;;;;;7.85;2.95;;;15.50;99.90;;;;;;4904469;29;20192;-91
2023/06/15 00:45:10;;;;;;;9.13;3.05;;;15.40;99.90;;;;;;4908657;29;20437;-93
2023/06/15 00:47:39;;;;;;;6.20;2.78;;;15.40;99.90;;;;;;4929208;29;20191;-92
2023/06/15 00:50:09;;;;;;;5.93;2.72;;;15.30;99.90;;;;;;4910024;29;20089;-92
2023/06/15 00:52:37;;;;;;;5.72;2.60;;;15.30;99.90;;;;;;4918998;29;20043;-92
2023/06/15 00:55:04;;;;;;;7.57;2.85;;;15.30;99.90;;;;;;4896631;29;20040;-93
2023/06/15 00:57:32;;;;;;;12.70;3.13;;;15.30;99.90;;;;;;4913599;29;20113;-95
2023/06/15 00:59:58;;;;;;;7.07;2.90;;;15.30;99.90;;;;;;4911822;29;20487;-94
2023/06/15 01:02:27;;;;;;;10.73;2.92;;;15.20;99.90;;;;;;4899887;29;20066;-94
2023/06/15 01:04:52;;;;;;;8.45;3.20;;;15.20;99.90;;;;;;4900917;29;20504;-94
2023/06/15 01:07:20;;;;;;;8.75;2.80;;;15.20;99.90;;;;;;4906595;29;20072;-94
2023/06/15 01:09:47;;;;;;;8.60;3.20;;;15.10;99.90;;;;;;4904894;29;20055;-93
2023/06/15 01:12:14;;;;;;;9.10;3.38;;;15.10;99.90;;;;;;4906516;29;20185;-94
2023/06/15 01:14:40;;;;;;;7.47;3.33;;;15.10;99.90;;;;;;4918371;29;20043;-93
2023/06/15 01:17:13;;;;;;;7.70;2.67;;;15.10;99.90;;;;;;4919154;29;20043;-93
2023/06/15 01:19:53;;;;;;;8.18;3.28;;;15.10;99.90;;;;;;4917583;29;20054;-93
2023/06/15 01:22:35;;;;;;;10.63;3.20;;;15.10;99.90;;;;;;4910049;29;20130;-93
2023/06/15 01:25:16;;;;;;;11.38;3.20;;;15.50;99.90;;;;;;4917981;29;20043;-93
2023/06/15 01:27:43;;;;;;;7.93;3.03;;;15.00;99.90;;;;;;4918461;29;20046;-93
2023/06/15 01:30:11;;;;;;;8.73;3.42;;;15.00;99.90;;;;;;4902438;29;20183;-94
2023/06/15 01:32:38;;;;;;;6.50;2.80;;;14.90;99.90;;;;;;4905255;29;20051;-93
2023/06/15 01:35:04;;;;;;;5.53;3.15;;;14.90;99.90;;;;;;4905872;29;20058;-93
2023/06/15 01:37:29;;;;;;;16.48;3.60;;;14.80;99.90;;;;;;4908092;29;20162;-93
2023/06/15 01:39:55;;;;;;;9.13;3.58;;;14.90;99.90;;;;;;4920184;29;20157;-94
2023/06/15 01:42:23;;;;;;;10.43;3.70;;;14.80;99.90;;;;;;4907076;29;20054;-95
2023/06/15 01:44:50;;;;;;;8.68;3.88;;;14.80;99.90;;;;;;4899396;29;20051;-95
2023/06/15 01:47:17;;;;;;;9.57;3.72;;;14.80;99.90;;;;;;4929356;29;20047;-94
2023/06/15 01:49:43;;;;;;;6.18;3.50;;;14.80;99.90;;;;;;4910199;29;20046;-93
2023/06/15 01:52:09;;;;;;;8.35;4.10;;;14.80;99.90;;;;;;4912232;29;20135;-94
2023/06/15 01:54:35;;;;;;;9.57;3.80;;;14.70;99.90;;;;;;4917856;29;20051;-94
2023/06/15 01:57:01;;;;;;;11.20;4.10;;;14.70;99.90;;;;;;4917379;29;20039;-94
2023/06/15 01:59:27;;;;;;;10.07;3.78;;;14.70;99.90;;;;;;4910102;29;20040;-94
2023/06/15 02:01:52;;;;;;;10.95;4.32;;;14.70;99.90;;;;;;4916131;29;20476;-94
2023/06/15 02:04:18;;;;;;;8.73;4.03;;;14.70;99.90;;;;;;4906921;29;20072;-95
2023/06/15 02:06:44;;;;;;;10.88;3.60;;;14.70;99.90;;;;;;4912320;29;20106;-95
2023/06/15 02:09:12;;;;;;;10.70;4.03;;;14.60;99.90;;;;;;4917232;29;20074;-94
2023/06/15 02:11:38;;;;;;;7.43;3.78;;;14.70;99.90;;;;;;4900768;29;20543;-94
2023/06/15 02:14:05;;;;;;;14.65;4.28;;;14.60;99.90;;;;;;4908842;29;20055;-94
2023/06/15 02:16:32;;;;;;;6.55;3.47;;;14.60;99.90;;;;;;4922480;29;20119;-94
2023/06/15 02:19:03;;;;;;;10.30;4.13;;;14.60;99.90;;;;;;4926995;29;20400;-94
2023/06/15 02:21:31;;;;;;;10.77;4.22;;;14.50;99.90;;;;;;4906331;29;20232;-95
2023/06/15 02:23:56;;;;;;;7.70;4.28;;;14.50;99.90;;;;;;4908081;29;20063;-94
2023/06/15 02:26:22;;;;;;;10.15;4.38;;;14.50;99.90;;;;;;4906541;29;20047;-95
2023/06/15 02:28:48;;;;;;;12.52;4.70;;;14.40;99.90;;;;;;4907530;29;20106;-94
2023/06/15 02:31:13;;;;;;;9.88;4.43;;;14.40;99.90;;;;;;4903009;29;20051;-94
2023/06/15 02:33:39;;;;;;;9.18;4.30;;;14.40;99.90;;;;;;4906730;29;20051;-94
2023/06/15 02:36:06;;;;;;;15.63;4.70;;;14.40;99.90;;;;;;4907526;29;20048;-95
2023/06/15 02:38:31;;;;;;;8.88;4.20;;;14.40;99.90;;;;;;4902843;29;20594;-94
2023/06/15 02:41:03;;;;;;;9.02;4.30;;;14.30;99.90;;;;;;4913863;29;20508;-94
2023/06/15 02:43:29;;;;;;;8.20;4.05;;;14.30;99.90;;;;;;4905881;29;20508;-95
2023/06/15 02:45:54;;;;;;;9.10;4.32;;;14.20;99.90;;;;;;4902461;29;20044;-94
2023/06/15 02:48:21;;;;;;;8.57;4.53;;;14.20;99.90;;;;;;4911824;29;20154;-93
2023/06/15 02:50:47;;;;;;;7.03;4.05;;;14.20;99.90;;;;;;4921302;29;20498;-93
2023/06/15 02:53:14;;;;;;;11.63;4.57;;;14.10;99.90;;;;;;4922055;29;20051;-94
2023/06/15 02:55:41;;;;;;;14.10;5.30;;;14.20;99.90;;;;;;4918787;29;20496;-94
2023/06/15 02:58:07;;;;;;;7.47;4.40;;;14.20;99.90;;;;;;4921823;29;20692;-94
2023/06/15 03:00:32;;;;;;;8.48;5.00;;;14.20;99.90;;;;;;4920103;29;20039;-93
2023/06/15 03:02:58;;;;;;;8.05;4.40;;;14.10;99.90;;;;;;4921182;29;20047;-94
2023/06/15 03:05:25;;;;;;;8.75;4.90;;;14.20;99.90;;;;;;4901265;29;20043;-94
2023/06/15 03:07:52;;;;;;;9.95;4.82;;;14.20;99.90;;;;;;4912126;29;20492;-93
2023/06/15 03:10:18;;;;;;;10.10;4.82;;;14.10;99.90;;;;;;4915926;29;20044;-95
2023/06/15 03:12:44;;;;;;;9.48;4.55;;;14.10;99.90;;;;;;4900674;29;20050;-93
2023/06/15 03:15:10;;;;;;;12.80;4.90;;;14.10;99.90;;;;;;4919598;29;20081;-93
2023/06/15 03:17:36;;;;;;;6.03;3.75;;;14.00;99.90;;;;;;4909151;29;20134;-95
2023/06/15 03:20:03;;;;;;;7.90;3.92;;;14.00;99.90;;;;;;4918249;29;20130;-94
2023/06/15 03:22:33;;;;;;;9.38;4.55;;;13.90;99.90;;;;;;4900301;29;20130;-93
2023/06/15 03:24:59;;;;;;;8.38;5.13;;;13.90;99.90;;;;;;4899564;29;20044;-95
2023/06/15 03:27:26;;;;;;;11.48;5.00;;;13.90;99.90;;;;;;4902273;29;20123;-95
2023/06/15 03:29:52;;;;;;;10.10;5.00;;;13.90;99.90;;;;;;4902004;29;20087;-94
2023/06/15 03:32:18;;;;;;;6.40;4.05;;;13.90;99.90;;;;;;4901923;29;20048;-95
2023/06/15 03:34:44;;;;;;;8.27;4.13;;;13.90;99.90;;;;;;4904950;29;20380;-93
2023/06/15 03:37:09;;;;;;;7.55;4.63;;;13.90;99.90;;;;;;4912494;29;20054;-92
2023/06/15 03:39:35;;;;;;;8.05;4.50;;;13.90;99.90;;;;;;4898042;29;20059;-93
2023/06/15 03:42:01;;;;;;;7.95;4.25;;;13.80;99.90;;;;;;4895416;29;20119;-94
2023/06/15 03:44:26;;;;;;;10.20;4.43;;;13.80;99.90;;;;;;4909312;29;20074;-92
2023/06/15 03:46:52;;;;;;;7.22;4.10;;;13.80;99.90;;;;;;4928733;29;20062;-92
2023/06/15 03:49:18;;;;;;;7.57;4.15;;;13.80;99.90;;;;;;4915999;29;20044;-93
2023/06/15 03:51:44;;;;;;;9.48;4.57;;;13.80;99.90;;;;;;4890591;29;20052;-93
2023/06/15 03:54:17;;;;;;;9.90;4.60;;;13.70;99.90;;;;;;4916171;29;20126;-94
2023/06/15 03:56:44;;;;;;;8.25;5.25;;;13.70;99.90;;;;;;4919818;29;20039;-92
2023/06/15 03:59:09;;;;;;;8.10;4.38;;;13.80;99.90;;;;;;4913337;29;20209;-92
2023/06/15 04:01:35;;;;;;;8.23;3.92;;;13.80;99.90;;;;;;4913610;29;20065;-95
2023/06/15 04:04:01;;;;;;;6.65;3.60;;;13.80;99.90;;;;;;4892557;29;20035;-93
2023/06/15 04:06:27;;;;;;;6.80;3.92;;;13.80;99.90;;;;;;4913663;29;20193;-94
2023/06/15 04:08:52;;;;;;;5.88;3.55;;;13.80;99.90;;;;;;4919621;29;20118;-94
2023/06/15 04:11:18;;;;;;;3.90;1.90;;;14.00;99.90;;;;;;4919367;29;20051;-94
2023/06/15 04:13:44;;;;;;;6.07;3.67;;;14.10;99.90;;;;;;4919002;29;20062;-95
2023/06/15 04:16:10;;;;;;;5.75;3.70;;;13.70;99.90;;;;;;4919500;29;20408;-95
2023/06/15 04:18:36;;;;;;;10.90;4.90;;;13.70;99.90;;;;;;4912629;29;20043;-94
2023/06/15 04:21:03;;;;;;;7.10;4.05;;;13.70;99.90;;;;;;4889306;29;20088;-94
2023/06/15 04:23:29;;;;;;;7.22;3.92;;;13.80;99.90;;;;;;4914825;29;20058;-95
2023/06/15 04:25:58;;;;;;;6.28;4.15;;;13.80;99.90;;;;;;4909627;29;20047;-93
2023/06/15 04:28:24;;;;;;;8.98;3.97;;;13.80;99.90;;;;;;4906869;29;20043;-94
2023/06/15 04:31:10;;;;;;;9.18;4.72;;;13.90;99.90;;;;;;4904835;29;20075;-91
2023/06/15 04:33:42;;;;;;;11.93;5.57;;;14.00;99.90;;;;;;4907746;29;20043;-92
2023/06/15 04:36:12;;;;;;;7.53;4.80;;;14.00;99.90;;;;;;4907901;29;20131;-91
2023/06/15 04:38:40;;;;;;;9.45;5.25;;;14.10;99.90;;;;;;4907429;29;20082;-92
2023/06/15 04:41:07;;;;;;;15.43;5.95;;;14.20;99.90;;;;;;4909689;29;20043;-91
2023/06/15 04:43:35;;;;;;;11.18;5.55;;;14.30;99.90;;;;;;4903988;29;20616;-92
2023/06/15 04:46:01;;;;;;;10.73;5.45;;;14.40;99.90;;;;;;4899788;29;20098;-91
2023/06/15 04:48:27;;;;;;;15.00;5.47;;;14.50;99.90;;;;;;4909095;29;20090;-90
2023/06/15 04:50:53;;;;;;;13.18;5.60;;;14.60;99.90;;;;;;4912764;29;20039;-91
2023/06/15 04:53:20;;;;;;;11.40;5.57;;;14.70;99.90;;;;;;4909793;29;20106;-90
2023/06/15 04:55:48;;;;;;;13.75;4.82;;;14.90;99.90;;;;;;4909740;29;20039;-90
2023/06/15 04:58:14;;;;;;;15.35;5.05;;;15.00;99.90;;;;;;4908504;29;20054;-91
2023/06/15 05:00:41;;;;;;;13.13;5.30;;;15.10;99.90;;;;;;4907688;29;20127;-90
2023/06/15 05:03:07;;;;;;;14.45;5.65;;;15.20;99.90;;;;;;4907817;29;20398;-90
2023/06/15 05:05:33;;;;;;;11.20;5.60;;;15.30;99.90;;;;;;4903701;29;20047;-90
2023/06/15 05:07:59;;;;;;;9.50;4.90;;;15.40;99.90;;;;;;4911458;29;20046;-91
2023/06/15 05:10:25;;;;;;;10.32;4.57;;;15.60;99.90;;;;;;4910685;29;20047;-91
2023/06/15 05:12:51;;;;;;;11.25;4.65;;;15.70;99.90;;;;;;4910165;29;20059;-92
2023/06/15 05:15:17;;;;;;;14.40;5.35;;;15.80;99.90;;;;;;4904681;29;20054;-91
2023/06/15 05:17:44;;;;;;;9.15;4.38;;;15.90;99.90;;;;;;4908098;29;20079;-91
2023/06/15 05:20:10;;;;;;;8.82;4.43;;;16.00;99.90;;;;;;4911026;29;20047;-91
2023/06/15 05:22:39;;;;;;;14.00;4.45;;;16.20;99.90;;;;;;4908389;29;20550;-91
2023/06/15 05:25:12;;;;;;;8.43;4.05;;;16.30;99.90;;;;;;4898331;29;20059;-89
2023/06/15 05:27:38;;;;;;;10.00;4.20;;;16.50;99.90;;;;;;4898103;29;20051;-91
2023/06/15 05:30:07;;;;;;;13.20;4.00;;;16.60;99.90;;;;;;4905481;29;20437;-90
2023/06/15 05:32:42;;;;;;;7.90;3.97;;;16.70;99.90;;;;;;4910120;29;20387;-91
2023/06/15 05:35:09;;;;;;;11.70;3.53;;;16.90;99.90;;;;;;4917772;28;20102;-91
2023/06/15 05:37:35;;;;;;;9.63;3.97;;;17.00;99.90;;;;;;4891609;29;20054;-90
2023/06/15 05:40:02;;;;;;;24.40;4.50;;;17.10;99.90;;;;;;4906961;29;20047;-92
2023/06/15 05:42:29;;;;;;;9.98;3.70;;;17.20;99.90;;;;;;4914881;29;20058;-92
2023/06/15 05:45:20;;;;;;;10.57;3.50;;;17.40;99.90;;;;;;4898365;29;20080;-91
2023/06/15 05:47:45;;;;;;;15.38;3.40;;;17.50;99.90;;;;;;4927472;29;20098;-92
2023/06/15 05:50:11;;;;;;;10.63;4.03;;;17.60;99.90;;;;;;4901184;29;20065;-91
2023/06/15 05:52:55;;;;;;;10.10;3.50;;;17.70;99.90;;;;;;4922654;29;20043;-94
2023/06/15 05:55:53;;;;;;;11.00;3.15;;;17.80;99.90;;;;;;4917218;29;20058;-91
2023/06/15 05:58:19;;;;;;;7.55;3.05;;;17.90;99.90;;;;;;4905669;29;20093;-91
2023/06/15 06:01:01;;;;;;;11.65;3.00;;;17.70;99.90;;;;;;4916907;29;20067;-91
2023/06/15 06:38:21;;;;;;;3.90;2.00;;;19.70;99.90;;;;;;4957123;23;20062;-89
2023/06/15 06:40:49;;;;;;;12.23;2.10;;;19.90;99.90;;;;;;4920983;29;20036;-88
2023/06/15 06:43:15;;;;;;;10.85;2.13;;;19.90;99.90;;;;;;4927334;29;20059;-90
2023/06/15 06:45:41;;;;;;;4.90;1.92;;;20.00;99.90;;;;;;4917253;29;20100;-90
2023/06/15 06:48:06;;;;;;;9.02;1.90;;;20.10;99.90;;;;;;4911865;29;20051;-90
2023/06/15 06:50:32;;;;;;;16.30;2.45;;;20.20;99.90;;;;;;4904249;29;20111;-92
2023/06/15 06:52:59;;;;;;;5.18;2.05;;;20.40;99.90;;;;;;4913598;29;20051;-92
2023/06/15 06:55:25;;;;;;;7.18;1.92;;;20.50;99.90;;;;;;4903038;29;20479;-91
2023/06/15 06:57:51;;;;;;;8.45;1.90;;;20.50;99.90;;;;;;4921249;29;20058;-91
2023/06/15 07:00:17;;;;;;;8.25;2.20;;;20.60;99.90;;;;;;4921431;29;20426;-91
2023/06/15 07:02:42;;;;;;;6.35;2.03;;;20.70;99.90;;;;;;4920336;29;20057;-92
2023/06/15 07:05:08;;;;;;;14.18;2.45;;;20.80;99.90;;;;;;4921637;28;20039;-90
2023/06/15 07:07:34;;;;;;;9.93;2.50;;;20.90;99.90;;;;;;4915165;29;20059;-90
2023/06/15 07:10:00;;;;;;;7.47;2.20;;;20.90;99.90;;;;;;4913290;29;20050;-91
2023/06/15 07:12:42;;;;;;;6.75;1.95;;;20.90;99.90;;;;;;4915085;29;20060;-91
2023/06/15 07:15:20;;;;;;;7.93;2.45;;;21.00;99.90;;;;;;4910804;29;20139;-90
2023/06/15 07:17:46;;;;;;;6.65;1.70;;;21.00;99.90;;;;;;4920669;29;20053;-89
2023/06/15 07:20:11;;;;;;;9.25;2.25;;;21.10;99.90;;;;;;4916245;29;20048;-91
2023/06/15 07:22:49;;;;;;;13.02;2.30;;;21.10;99.90;;;;;;4915601;29;20138;-89
2023/06/15 07:25:15;;;;;;;9.85;2.17;;;21.20;99.90;;;;;;4908706;29;20499;-90
2023/06/15 07:27:41;;;;;;;10.55;1.95;;;21.30;99.90;;;;;;4913929;29;20043;-90
2023/06/15 07:30:07;;;;;;;11.05;2.22;;;21.30;99.90;;;;;;4920097;29;20036;-89
2023/06/15 07:32:33;;;;;;;8.18;2.10;;;21.40;99.90;;;;;;4927238;28;20053;-90
2023/06/15 07:34:59;;;;;;;5.47;1.95;;;21.60;99.90;;;;;;4920380;29;20043;-90
2023/06/15 07:37:25;;;;;;;4.97;1.88;;;21.60;99.90;;;;;;4920279;29;20063;-91
2023/06/15 07:39:50;;;;;;;16.63;2.30;;;21.70;99.90;;;;;;4913609;29;20047;-92
2023/06/15 07:42:16;;;;;;;10.32;2.30;;;21.80;99.50;;;;;;4915042;29;20086;-92
2023/06/15 07:44:42;;;;;;;8.45;1.80;;;21.90;99.70;;;;;;4913137;29;20445;-91
2023/06/15 07:47:08;;;;;;;10.35;2.45;;;22.00;99.40;;;;;;4902393;29;20264;-91
2023/06/15 07:49:34;;;;;;;7.57;1.90;;;22.00;98.80;;;;;;4907573;29;20053;-90
2023/06/15 07:51:59;;;;;;;6.60;2.10;;;22.10;98.20;;;;;;4932344;28;20134;-92
2023/06/15 07:54:25;;;;;;;8.55;2.28;;;22.10;98.40;;;;;;4920115;29;20052;-93
2023/06/15 07:56:51;;;;;;;6.97;2.22;;;22.30;98.70;;;;;;4922631;29;20047;-93
2023/06/15 07:59:17;;;;;;;9.98;2.47;;;22.40;98.20;;;;;;4919159;29;20348;-91
2023/06/15 08:01:42;;;;;;;12.80;2.53;;;22.40;97.90;;;;;;4925348;29;20091;-91
2023/06/15 08:04:15;;;;;;;8.85;2.13;;;22.50;97.80;;;;;;4908919;29;20054;-93
2023/06/15 08:06:41;;;;;;;;;;;22.60;97.70;;;;;;4919078;28;20086;-92
2023/06/15 08:09:07;;;;;;;10.27;2.30;;;22.60;97.90;;;;;;4931642;29;19965;-92
2023/06/15 08:11:36;;;;;;;6.55;2.20;;;22.70;98.10;;;;;;4918284;29;22022;-91
2023/06/15 08:14:01;;;;;;;10.02;2.65;;;22.80;97.20;;;;;;4920339;29;20075;-90
2023/06/15 08:16:29;;;;;;;5.32;2.38;;;22.90;97.00;;;;;;4906856;29;20051;-91
2023/06/15 08:18:55;;;;;;;10.40;2.50;;;23.00;97.20;;;;;;4918624;29;20098;-93
2023/06/15 08:21:21;;;;;;;12.70;3.35;;;23.10;97.20;;;;;;4918500;29;20404;-91
2023/06/15 08:23:46;;;;;;;7.38;2.20;;;23.10;96.50;;;;;;4919864;29;20043;-92
2023/06/15 08:26:12;;;;;;;9.90;2.25;;;23.10;96.80;;;;;;4916962;29;20058;-91
2023/06/15 08:28:38;;;;;;;6.82;2.13;;;23.20;96.40;;;;;;4908125;29;20463;-91
2023/06/15 08:31:04;;;;;;;10.75;2.50;;;23.30;95.80;;;;;;4918742;29;20134;-91
2023/06/15 08:33:30;;;;;;;14.27;2.40;;;23.30;95.30;;;;;;4918957;29;20093;-91
2023/06/15 08:35:56;;;;;;;8.57;1.95;;;23.40;95.30;;;;;;4917209;29;20138;-91
2023/06/15 08:38:24;;;;;;;8.63;2.30;;;23.50;94.60;;;;;;4926824;28;20465;-90
2023/06/15 08:40:50;;;;;;;5.13;2.40;;;23.50;93.60;;;;;;4933678;28;20129;-91
2023/06/15 08:43:24;;;;;;;5.18;2.00;;;23.60;93.60;;;;;;4927823;28;20110;-91
2023/06/15 08:45:56;;;;;;;6.30;2.10;;;23.70;93.30;;;;;;4921703;29;20074;-91
2023/06/15 08:48:23;;;;;;;9.00;2.53;;;23.80;92.40;;;;;;4918488;29;20047;-92
2023/06/15 08:50:49;;;;;;;9.85;2.30;;;23.80;92.70;;;;;;4918197;29;20043;-91
2023/06/15 08:53:16;;;;;;;5.60;2.10;;;23.80;92.80;;;;;;4919411;29;20110;-90
2023/06/15 08:55:42;;;;;;;5.68;2.38;;;23.90;93.10;;;;;;4925531;29;20507;-90
2023/06/15 08:58:08;;;;;;;11.70;2.35;;;24.00;93.40;;;;;;4911121;29;20047;-92
2023/06/15 09:00:35;;;;;;;8.52;1.70;;;24.20;93.10;;;;;;4913609;29;20504;-91
2023/06/15 09:03:04;;;;;;;6.20;1.75;;;24.20;92.50;;;;;;4910933;29;20071;-90
2023/06/15 09:05:38;;;;;;;5.65;2.20;;;24.20;91.50;;;;;;4917970;29;20078;-92
2023/06/15 09:08:05;;;;;;;5.63;2.08;;;24.10;91.80;;;;;;4905993;29;20142;-90
2023/06/15 09:10:36;;;;;;;4.30;1.95;;;24.20;91.80;;;;;;4899688;29;20048;-90
2023/06/15 09:13:03;;;;;;;6.05;1.73;;;24.20;91.50;;;;;;4901309;29;20051;-90
2023/06/15 09:15:30;;;;;;;10.10;2.72;;;24.20;91.90;;;;;;4927402;29;20098;-91
2023/06/15 09:17:58;;;;;;;6.35;1.88;;;24.30;91.70;;;;;;4912935;29;20078;-89
2023/06/15 09:20:25;;;;;;;7.60;1.92;;;24.30;91.50;;;;;;4900450;29;20106;-91
2023/06/15 09:22:59;;;;;;;9.65;2.10;;;24.30;91.70;;;;;;4912563;29;20047;-90
2023/06/15 09:25:25;;;;;;;9.45;2.38;;;24.30;90.90;;;;;;4909775;29;20102;-89
2023/06/15 09:27:59;;;;;;;9.40;1.80;;;24.40;91.10;;;;;;4913238;29;20043;-90
2023/06/15 09:30:40;;;;;;;5.22;1.88;;;24.50;90.80;;;;;;4899679;29;20134;-90
2023/06/15 09:33:14;;;;;;;7.43;2.10;;;24.60;90.90;;;;;;4900896;29;20087;-90
2023/06/15 09:36:00;;;;;;;7.95;1.83;;;24.70;90.60;;;;;;4911653;29;20047;-90
2023/06/15 09:38:30;;;;;;;7.25;2.10;;;24.90;89.30;;;;;;4890736;29;20616;-90
2023/06/15 09:40:56;;;;;;;4.43;1.90;;;24.80;88.10;;;;;;4893848;29;20063;-91
2023/06/15 09:43:22;;;;;;;7.13;1.88;;;24.80;88.40;;;;;;4897727;29;20492;-90
2023/06/15 09:45:50;;;;;;;7.47;1.67;;;24.80;87.30;;;;;;4903334;29;20054;-90
2023/06/15 09:48:16;;;;;;;6.90;1.67;;;24.80;87.30;;;;;;4896162;29;20044;-90
2023/06/15 09:50:42;;;;;;;12.73;2.60;;;24.90;86.90;;;;;;4879556;29;20084;-90
2023/06/15 09:53:12;;;;;;;10.50;2.05;;;25.00;86.90;;;;;;4890403;29;20043;-90
2023/06/15 09:55:43;;;;;;;6.38;1.80;;;25.10;87.80;;;;;;4898418;29;20134;-91
2023/06/15 09:58:10;;;;;;;7.50;1.98;;;25.30;86.90;;;;;;4888936;29;20493;-91
2023/06/15 10:00:36;;;;;;;5.93;1.67;;;25.40;86.20;;;;;;4894084;29;20044;-91
2023/06/15 10:03:06;;;;;;;6.60;1.70;;;25.40;84.40;;;;;;4883819;29;20067;-90
2023/06/15 10:05:33;;;;;;;5.68;1.70;;;25.50;84.30;;;;;;4888754;29;20047;-91
2023/06/15 10:08:04;;;;;;;9.07;2.00;;;25.50;84.00;;;;;;4891849;29;20051;-90
2023/06/15 10:10:30;;;;;;;4.45;1.70;;;25.60;81.70;;;;;;4882124;29;20036;-89
2023/06/15 10:13:00;;;;;;;6.97;1.80;;;25.70;81.10;;;;;;4893337;29;20048;-90
2023/06/15 10:15:28;;;;;;;3.70;1.50;;;25.70;79.90;;;;;;4881430;29;20032;-90
2023/06/15 10:17:56;;;;;;;7.68;1.50;;;25.70;78.90;;;;;;4906894;29;20043;-91
2023/06/15 10:20:24;;;;;;;11.75;1.90;;;25.60;78.20;;;;;;4904017;29;20087;-91
2023/06/15 10:22:57;;;;;;;7.95;2.05;;;25.70;79.70;;;;;;4897634;29;20062;-91
2023/06/15 10:25:24;;;;;;;4.53;1.65;;;25.70;78.80;;;;;;4896417;29;20074;-91
2023/06/15 10:27:50;;;;;;;7.18;1.75;;;25.70;80.60;;;;;;4903007;29;20039;-92
2023/06/15 10:30:36;;;;;;;7.22;1.80;;;25.80;80.10;;;;;;4895494;29;20123;-91
2023/06/15 10:33:09;;;;;;;5.32;1.85;;;25.80;81.00;;;;;;4936055;29;20064;-90
2023/06/15 10:35:39;;;;;;;;;;;25.80;78.40;;;;;;4903061;29;20050;-92
2023/06/15 10:38:18;;;;;;;8.85;2.10;;;25.80;78.70;;;;;;4916126;29;20358;-91
2023/06/15 10:40:48;;;;;;;4.45;1.60;;;25.90;76.80;;;;;;4917484;28;20047;-92
2023/06/15 10:43:18;;;;;;;5.20;1.50;;;26.00;76.90;;;;;;4921992;29;20388;-91
2023/06/15 10:45:44;;;;;;;5.80;1.92;;;26.00;73.60;;;;;;4907356;28;20067;-91
2023/06/15 10:48:20;;;;;;;8.52;1.60;;;26.00;73.30;;;;;;4911327;29;20141;-92
2023/06/15 10:50:52;;;;;;;4.88;1.98;;;26.00;71.30;;;;;;4909664;29;20126;-91
2023/06/15 10:53:25;;;;;;;11.82;2.05;;;25.90;71.60;;;;;;4910046;29;20089;-91
2023/06/15 10:55:54;;;;;;;4.15;1.45;;;25.90;71.50;;;;;;4911464;29;20035;-93
2023/06/15 10:58:20;;;;;;;4.10;1.70;;;25.90;71.20;;;;;;4921292;29;20051;-92
2023/06/15 11:01:04;;;;;;;5.05;1.80;;;26.00;72.00;;;;;;4904735;29;20134;-91
2023/06/15 11:03:32;;;;;;;6.95;1.80;;;26.10;73.40;;;;;;4921621;29;20070;-90
2023/06/15 11:06:12;;;;;;;9.98;1.88;;;26.20;73.70;;;;;;4920664;29;20507;-90
2023/06/15 11:08:47;;;;;;;5.07;1.88;;;26.40;72.00;;;;;;4905177;29;20040;-90
2023/06/15 11:11:14;;;;;;;7.90;1.90;;;26.50;72.40;;;;;;4903508;29;20043;-90
2023/06/15 11:14:00;;;;;;;6.03;1.60;;;26.50;73.00;;;;;;4919605;29;20057;-90
2023/06/15 11:16:31;;;;;;;5.25;1.90;;;26.50;73.60;;;;;;4925212;28;20533;-89
2023/06/15 11:18:58;;;;;;;8.77;1.90;;;26.60;73.90;;;;;;4916534;29;20082;-90
2023/06/15 11:21:28;;;;;;;5.30;1.77;;;26.60;72.80;;;;;;4917158;29;20600;-90
2023/06/15 11:23:57;;;;;;;4.00;1.42;;;26.60;73.20;;;;;;4917224;29;20499;-91
2023/06/15 11:26:31;;;;;;;7.68;1.83;;;26.60;72.50;;;;;;4915991;28;20043;-90
2023/06/15 11:29:01;;;;;;;5.45;1.63;;;26.60;71.50;;;;;;4928819;29;20047;-90
2023/06/15 11:31:28;;;;;;;6.38;1.98;;;26.60;72.20;;;;;;4918153;28;20130;-90
2023/06/15 11:33:55;;;;;;;5.20;1.52;;;26.70;73.20;;;;;;4927064;29;20039;-89
2023/06/15 11:36:21;;;;;;;4.82;1.73;;;26.80;71.60;;;;;;4906369;28;20088;-89
2023/06/15 11:38:47;;;;;;;4.55;1.90;;;26.80;70.70;;;;;;4909825;29;20087;-88
2023/06/15 11:41:13;;;;;;;8.20;1.80;;;26.90;72.00;;;;;;4912978;28;20109;-89
2023/06/15 11:43:47;;;;;;;6.03;1.70;;;26.90;70.70;;;;;;4926355;29;20116;-90
2023/06/15 11:46:16;;;;;;;6.82;1.50;;;26.90;69.40;;;;;;4920865;29;20055;-90
2023/06/15 11:48:44;;;;;;;6.50;1.95;;;26.90;68.10;;;;;;4919491;29;20379;-90
2023/06/15 11:51:12;;;;;;;7.47;1.50;;;26.90;67.70;;;;;;4900918;29;20051;-89
2023/06/15 11:53:47;;;;;;;5.40;2.03;;;26.90;68.10;;;;;;4916252;29;20048;-90
2023/06/15 11:56:14;;;;;;;7.30;2.00;;;27.00;68.00;;;;;;4912969;29;20078;-91
2023/06/15 11:58:42;;;;;;;8.02;2.08;;;27.10;68.80;;;;;;4922902;29;20070;-91
2023/06/15 12:01:12;;;;;;;9.27;1.92;;;27.20;68.00;;;;;;4920126;29;20538;-90
2023/06/15 12:03:40;;;;;;;12.43;1.80;;;27.10;66.90;;;;;;4909093;29;20046;-90
2023/06/15 12:06:06;;;;;;;2.95;1.40;;;27.20;68.20;;;;;;4920590;29;20447;-91
2023/06/15 12:08:32;;;;;;;5.30;1.88;;;27.10;69.30;;;;;;4903683;29;20134;-90
2023/06/15 12:10:59;;;;;;;11.23;2.03;;;27.10;67.70;;;;;;4924937;29;20129;-92
2023/06/15 12:13:26;;;;;;;7.45;1.90;;;27.20;67.40;;;;;;4910551;29;20504;-91
2023/06/15 12:15:52;;;;;;;11.48;1.75;;;27.30;65.70;;;;;;4916200;29;20043;-91
2023/06/15 12:18:19;;;;;;;8.60;1.58;;;27.30;65.00;;;;;;4919078;29;20078;-90
2023/06/15 12:20:47;;;;;;;4.47;1.55;;;27.30;64.70;;;;;;4919246;29;20147;-91
2023/06/15 12:23:27;;;;;;;6.50;1.70;;;27.30;64.00;;;;;;4920874;29;20047;-91
2023/06/15 12:25:56;;;;;;;7.82;1.65;;;27.30;63.70;;;;;;4918765;29;20074;-93
2023/06/15 12:28:22;;;;;;;9.02;1.83;;;27.40;63.30;;;;;;4913600;29;20051;-93
2023/06/15 12:30:50;;;;;;;4.45;1.73;;;27.40;62.70;;;;;;4916517;29;20042;-91
2023/06/15 12:33:24;;;;;;;7.03;1.95;;;27.40;63.50;;;;;;4912146;29;20058;-90
2023/06/15 12:35:51;;;;;;;4.93;1.70;;;27.40;65.50;;;;;;4923629;29;20484;-92
2023/06/15 12:38:17;;;;;;;9.80;1.92;;;27.40;65.30;;;;;;4913534;29;20082;-91
2023/06/15 12:40:43;;;;;;;6.43;1.60;;;27.40;64.50;;;;;;4910576;29;20047;-91
2023/06/15 12:43:09;;;;;;;8.50;1.75;;;27.30;63.20;;;;;;4914841;29;20227;-93
2023/06/15 12:45:36;;;;;;;5.13;1.70;;;27.30;64.80;;;;;;4904774;29;20055;-90
2023/06/15 12:48:02;;;;;;;5.68;1.85;;;27.20;65.20;;;;;;4900200;29;20047;-95
2023/06/15 12:50:29;;;;;;;4.90;1.60;;;27.20;66.20;;;;;;4913987;29;20051;-95
2023/06/15 12:52:57;;;;;;;5.93;2.28;;;27.20;65.20;;;;;;4910883;29;20051;-90
2023/06/15 12:55:23;;;;;;;10.07;1.80;;;27.20;65.00;;;;;;4912965;29;20130;-90
2023/06/15 12:57:49;;;;;;;8.80;2.15;;;27.20;67.30;;;;;;4911072;29;20419;-91
2023/06/15 13:00:16;;;;;;;6.65;1.73;;;27.30;67.40;;;;;;4900829;29;20126;-91
2023/06/15 13:02:42;;;;;;;5.32;1.77;;;27.30;66.90;;;;;;4910841;29;20054;-90
2023/06/15 13:05:09;;;;;;;10.00;1.70;;;27.30;67.00;;;;;;4917360;28;20050;-92
2023/06/15 13:07:37;;;;;;;9.32;2.03;;;27.30;67.20;;;;;;4910530;29;20063;-92
2023/06/15 13:10:03;;;;;;;8.50;1.90;;;27.20;66.70;;;;;;4916370;29;20423;-92
2023/06/15 13:12:29;;;;;;;6.07;1.75;;;27.00;66.70;;;;;;4912788;29;20050;-90
2023/06/15 13:14:55;;;;;;;13.10;2.00;;;26.90;67.40;;;;;;4919156;28;20050;-91
2023/06/15 13:17:21;;;;;;;7.75;1.75;;;26.80;67.60;;;;;;4910330;29;20047;-92
2023/06/15 13:19:47;;;;;;;10.60;2.42;;;26.60;68.10;;;;;;4920615;29;20098;-92
2023/06/15 13:22:13;;;;;;;9.05;2.08;;;26.60;68.20;;;;;;4918871;29;20486;-93
2023/06/15 13:24:39;;;;;;;6.90;1.58;;;26.70;70.60;;;;;;4918168;29;20070;-90